Weather observations for the past three days for
Joplin, Joplin Regional Airport
Metric (Imperial)
Date Time (cdt) Wind (kph) Vis. (km) Weather Sky Cond. Temperature (ºC) Relative Humidity Wind Chill (°C) Heat Index (°C) Pressure Precipitation (cm)
Air Dwpt 6 hour altimeter (cm) sea level (mb) 1 hr 3 hr 6 hr
Max. Min.
09 13:53 SW 15 16.09 Fair CLR 26.1 12.2 42% 26 75.84 1010.4
09 12:53 Vrbl 7 16.09 Fair CLR 25.6 13.3 25.6 13.3 47% 26 75.87 1010.7
09 11:53 Vrbl 7 16.09 Fair CLR 25 12.8 47% 26 75.87 1010.7
09 10:53 SW 7 16.09 Fair CLR 22.8 13.3 55% 75.87 1010.7
09 09:53 Calm 16.09 Fair CLR 18.9 15.6 81% 75.87 1010.9
09 08:53 Vrbl 6 14.48 Fair CLR 16.1 15.6 97% 75.84 1010.8
09 07:53 SW 7 0.40 Fog VV002 13.9 13.9 100% 75.84 1010.7
09 06:53 SW 6 0.24 Fog VV002 13.3 13.3 13.3 11.1 100% 75.79 1010.1
09 05:53 SW 6 6.44 Fog/Mist CLR 12.2 12.2 100% 75.79 1009.8
09 04:53 SW 6 8.05 Fog/Mist CLR 12.8 12.2 96% 75.79 1009.7
09 03:53 SW 9 3.22 Fog/Mist CLR 11.1 11.1 100% 75.82 1010.0
09 02:53 S 7 12.87 Fair CLR 12.2 11.7 97% 75.77 1009.5
09 01:53 S 7 14.48 Fair CLR 12.2 12.2 100% 75.79 1009.8
09 00:53 Calm 14.48 Fair CLR 12.2 12.2 20 12.2 100% 75.82 1009.9
08 23:53 Calm 16.09 Fair CLR 13.9 13.3 96% 75.82 1010.2
08 22:53 Calm 16.09 A Few Clouds FEW060 13.9 13.3 96% 75.82 1010.1
08 21:53 Calm 16.09 Overcast OVC080 15.6 13.3 86% 75.77 1009.5
08 20:53 NW 11 16.09 Partly Cloudy SCT090 17.2 13.3 78% 75.67 1008.1
08 19:53 SW 19 16.09 Overcast OVC120 19.4 12.2 63% 75.54 1006.3
08 18:53 S 15 16.09 Light Rain FEW090 BKN120 19.4 12.8 25.6 19.4 66% 75.54 1006.7
08 17:53 S 13 16.09 Mostly Cloudy BKN110 19.4 13.3 68% 75.54 1006.7
08 16:53 SW 17 16.09 Light Rain OVC100 21.1 11.7 55% 75.67 1008.1
08 15:53 SW 19 G 37 16.09 Mostly Cloudy BKN100 22.8 10 44% 75.62 1007.5
08 14:53 S 22 16.09 A Few Clouds FEW100 25 11.1 42% 26 75.67 1008.1
08 13:53 SW 31 G 39 16.09 Fair CLR 24.4 10.6 42% 25 75.74 1008.9
08 12:53 SW 22 16.09 Fair CLR 23.9 10.6 23.9 13.9 43% 25 75.79 1009.6
08 11:53 S 24 16.09 Fair CLR 22.2 11.1 50% 75.87 1010.7
08 10:53 S 30 G 43 16.09 Fair CLR 21.1 11.7 55% 75.92 1011.6
08 09:53 SW 24 G 44 16.09 Fair CLR 18.9 10.6 59% 75.97 1012.5
08 08:53 SW 28 G 39 16.09 Fair CLR 16.7 10 65% 76.02 1012.9
08 07:53 SW 24 G 41 16.09 Fair CLR 15 8.9 67% 76 1012.8
08 06:53 S 24 16.09 Fair CLR 13.9 7.2 13.9 12.2 64% 75.97 1012.4
08 05:53 S 26 16.09 Fair CLR 13.3 6.7 65% 75.92 1011.7
08 04:53 S 24 16.09 Fair CLR 13.3 6.1 62% 75.92 1011.6
08 03:53 S 20 16.09 Fair CLR 13.3 6.1 62% 75.92 1011.6
08 02:53 S 19 16.09 Fair CLR 12.2 6.1 67% 75.95 1012.1
08 01:53 S 19 16.09 Fair CLR 12.2 6.1 67% 76 1012.6
08 00:53 S 15 16.09 Fair CLR 12.2 6.1 18.9 12.2 67% 76.02 1013.0
07 23:53 S 19 16.09 Fair CLR 13.3 6.1 62% 76.05 1013.3
07 22:53 S 19 16.09 Fair CLR 13.9 6.7 62% 76.07 1013.8
07 21:53 S 17 16.09 Fair CLR 14.4 6.7 60% 76.1 1014.1
07 20:53 S 9 16.09 Fair CLR 14.4 6.7 60% 76.05 1013.7
07 19:53 S 15 16.09 Fair CLR 16.7 6.1 50% 76.02 1013.2
07 18:53 SW 19 16.09 Fair CLR 18.9 5.6 20 17.8 42% 76.02 1013.2
07 17:53 S 22 G 33 16.09 Fair CLR 19.4 6.1 42% 76.05 1013.6
07 16:53 SW 19 16.09 Fair CLR 20 6.1 40% 76.1 1014.1
07 15:53 SW 24 G 37 16.09 A Few Clouds FEW055 19.4 6.1 42% 76.12 1014.7
07 14:53 SW 22 G 35 16.09 A Few Clouds FEW055 19.4 6.1 42% 76.23 1015.9
07 13:53 SW 19 G 31 16.09 A Few Clouds FEW060 18.9 5.6 42% 76.25 1016.5
07 12:53 SW 13 G 28 16.09 Fair CLR 17.8 5 17.8 6.1 43% 76.3 1017.1
07 11:53 SW 15 16.09 Fair CLR 16.7 3.3 41% 76.4 1018.3
07 10:53 SW 17 16.09 Fair CLR 16.1 3.3 43% 76.4 1018.5
07 09:53 SW 15 16.09 Fair CLR 15 3.3 46% 76.43 1018.9
07 08:53 S 11 16.09 Fair CLR 13.3 3.3 51% 76.45 1019.0
07 07:53 S 7 16.09 Fair CLR 10 4.4 68% 9 76.45 1019.0
07 06:53 Calm 16.09 Fair CLR 6.1 3.9 7.2 5 86% 76.43 1018.7
07 05:53 Calm 16.09 Mostly Cloudy BKN120 6.7 5 89% 76.4 1018.4
07 04:53 Calm 16.09 Partly Cloudy SCT120 7.2 5.6 90% 76.4 1018.3
07 03:53 Calm 16.09 Overcast OVC110 6.1 4.4 89% 76.4 1018.3
07 02:53 Calm 16.09 Fair CLR 5.6 4.4 92% 76.4 1018.6
07 01:53 Calm 16.09 Fair CLR 5.6 4.4 92% 76.4 1018.7
07 00:53 Calm 16.09 Fair CLR 6.1 4.4 15 6.1 89% 76.43 1018.9
06 23:53 Calm 16.09 Fair CLR 6.7 5 89% 76.43 1019.0
06 22:53 Calm 16.09 Fair CLR 7.8 4.4 79% 76.43 1018.7
06 21:53 NE 7 16.09 Fair CLR 9.4 2.8 64% 9 76.4 1018.4
06 20:53 NE 7 16.09 Fair CLR 11.1 2.8 57% 76.35 1017.8
06 19:53 NE 9 16.09 A Few Clouds FEW100 12.8 3.3 53% 76.3 1017.2
06 18:53 N 19 16.09 A Few Clouds FEW120 14.4 2.2 16.7 14.4 44% 76.25 1016.6
06 17:53 N 22 G 31 16.09 A Few Clouds FEW060 16.1 2.8 41% 76.23 1015.9
06 16:53 NE 13 16.09 Fair CLR 16.1 2.2 39% 76.25 1016.2
06 15:53 NE 19 G 41 16.09 A Few Clouds FEW055 16.7 3.9 43% 76.25 1016.5
Date Time (cdt) Wind (kph) Vis. (km) Weather Sky Cond. Air Dwpt Max. Min. Relative Humidity Wind Chill (°C) Heat Index (°C) altimeter (cm) sea level (mb) 1 hr 3 hr 6 hr
6 hour
Temperature (ºC) Pressure Precipitation (cm)